Ganntown, Illinois
Current Conditions -  °F | °C
As of 3:15 AM on Monday 24 Nov 2014 (Local Time) from KM30 Reporting Station
Overcast Overcast  
Wind Chill: 61°   Ceiling: 2000
Heat Index: 61°   Visibility: 10mi
Dew Point: 58°   Wind: 16mph
Humidity: 90%   Direction: 210°SSW
Pressure: 29.3"   Gusts: 26mph
Location:  37.3798°N, 88.7652°W
Report Text: KM30 240915Z AUTO 21014G23KT 10SM BKN020 OVC030 16/15 A2930 RMK AO2 T01620146
Loading
Personal Weather Stations






























Interactive Weather Map New forecast layout! Learn more

10-Day Weather Forecast

Advertisements
Track Severe Weather on mobile